Time;durP1;ratioP1;P1;durP2;ratioP2;P2;SDS_P1;SDS_P2;PMS_P1;PMS_P2;Temp;Humidity;BMP_temperature;BMP_pressure;BME280_temperature;BME280_humidity;BME280_pressure;Samples;Min_cycle;Max_cycle;Signal;HPM_P1;HPM_P2
2023/12/05 00:00:37;;;;;;;6.47;5.82;;;;;;;;;;5016978;28;20234;-59
2023/12/05 00:03:05;;;;;;;6.28;5.68;;;;;;;;;;5017178;28;20541;-59
2023/12/05 00:05:32;;;;;;;6.57;5.88;;;;;;;;;;5018242;28;20284;-59
2023/12/05 00:08:01;;;;;;;6.20;5.60;;;;;;;;;;5021229;28;20210;-59
2023/12/05 00:10:29;;;;;;;6.55;5.80;;;;;;;;;;5021242;28;20610;-59
2023/12/05 00:12:57;;;;;;;6.30;5.70;;;;;;;;;;5021472;28;20563;-59
2023/12/05 00:15:25;;;;;;;6.68;5.97;;;;;;;;;;5021715;28;20237;-59
2023/12/05 00:17:52;;;;;;;6.28;5.68;;;;;;;;;;5020984;28;20206;-59
2023/12/05 00:20:19;;;;;;;6.07;5.47;;;;;;;;;;5021791;28;20232;-59
2023/12/05 00:22:47;;;;;;;6.43;5.82;;;;;;;;;;5021574;28;20272;-59
2023/12/05 00:25:16;;;;;;;7.15;6.15;;;;;;;;;;5021285;28;20488;-59
2023/12/05 00:27:43;;;;;;;7.15;6.30;;;;;;;;;;5021528;28;20272;-59
2023/12/05 00:30:11;;;;;;;6.82;6.20;;;;;;;;;;5021218;28;20316;-59
2023/12/05 00:32:39;;;;;;;6.88;6.18;;;;;;;;;;5020961;28;20268;-59
2023/12/05 00:35:07;;;;;;;6.65;5.95;;;;;;;;;;5020932;28;20213;-59
2023/12/05 00:37:34;;;;;;;7.00;6.30;;;;;;;;;;5021137;28;20242;-59
2023/12/05 00:40:02;;;;;;;6.70;6.00;;;;;;;;;;5020748;28;20268;-59
2023/12/05 00:42:31;;;;;;;7.13;6.22;;;;;;;;;;5021143;28;20242;-60
2023/12/05 00:44:59;;;;;;;7.10;6.40;;;;;;;;;;5020887;28;20308;-60
2023/12/05 00:47:26;;;;;;;6.75;6.15;;;;;;;;;;5020734;28;20237;-60
2023/12/05 00:49:54;;;;;;;7.55;6.70;;;;;;;;;;5020977;28;20609;-60
2023/12/05 00:52:21;;;;;;;7.13;6.43;;;;;;;;;;5020776;28;20206;-60
2023/12/05 00:54:49;;;;;;;7.18;6.47;;;;;;;;;;5020501;28;20289;-60
2023/12/05 00:57:16;;;;;;;7.00;6.30;;;;;;;;;;5020448;28;20265;-59
2023/12/05 00:59:45;;;;;;;7.75;6.90;;;;;;;;;;5020835;28;20289;-59
2023/12/05 01:02:13;;;;;;;7.38;6.53;;;;;;;;;;5020402;28;20251;-59
2023/12/05 01:04:40;;;;;;;8.30;6.75;;;;;;;;;;5020184;28;20222;-59
2023/12/05 01:07:12;;;;;;;7.50;6.68;;;;;;;;;;5020560;28;20206;-59
2023/12/05 01:09:40;;;;;;;8.10;7.28;;;;;;;;;;5020098;28;20214;-59
2023/12/05 01:12:08;;;;;;;7.75;6.95;;;;;;;;;;5020225;28;20214;-59
2023/12/05 01:14:35;;;;;;;7.75;7.05;;;;;;;;;;5020323;28;20206;-59
2023/12/05 01:17:04;;;;;;;7.35;6.57;;;;;;;;;;5019627;28;20604;-59
2023/12/05 01:19:32;;;;;;;8.18;6.80;;;;;;;;;;5019958;28;20202;-59
2023/12/05 01:22:00;;;;;;;6.80;6.10;;;;;;;;;;5019901;28;20253;-59
2023/12/05 01:24:28;;;;;;;7.68;6.88;;;;;;;;;;5019944;28;20272;-59
2023/12/05 01:26:55;;;;;;;6.18;5.57;;;;;;;;;;5020074;28;20206;-59
2023/12/05 01:29:23;;;;;;;7.60;6.70;;;;;;;;;;5020229;28;20257;-59
2023/12/05 01:31:50;;;;;;;8.38;7.25;;;;;;;;;;5019769;28;20325;-59
2023/12/05 01:34:19;;;;;;;8.07;7.28;;;;;;;;;;5020222;28;20214;-59
2023/12/05 01:36:47;;;;;;;8.40;7.50;;;;;;;;;;5019586;28;20309;-59
2023/12/05 01:39:14;;;;;;;8.27;6.95;;;;;;;;;;5019883;28;20228;-59
2023/12/05 01:41:41;;;;;;;7.25;6.32;;;;;;;;;;5020052;28;20210;-59
2023/12/05 01:44:09;;;;;;;7.82;6.68;;;;;;;;;;5019993;28;20214;-60
2023/12/05 01:46:37;;;;;;;8.88;6.88;;;;;;;;;;5019952;28;20543;-60
2023/12/05 01:49:05;;;;;;;12.82;7.40;;;;;;;;;;5019591;28;20595;-60
2023/12/05 01:51:34;;;;;;;12.50;7.22;;;;;;;;;;5019682;28;20226;-60
2023/12/05 01:54:03;;;;;;;7.47;6.68;;;;;;;;;;5019253;28;20217;-60
2023/12/05 01:56:30;;;;;;;10.30;6.65;;;;;;;;;;5019503;28;20628;-59
2023/12/05 01:58:58;;;;;;;11.00;7.70;;;;;;;;;;5019702;28;20206;-59
2023/12/05 02:01:25;;;;;;;11.20;7.45;;;;;;;;;;5019332;28;20203;-59
2023/12/05 02:03:54;;;;;;;9.32;7.75;;;;;;;;;;5019371;28;20289;-59
2023/12/05 02:06:21;;;;;;;8.73;7.45;;;;;;;;;;5019331;28;20273;-59
2023/12/05 02:08:50;;;;;;;9.48;7.35;;;;;;;;;;5019086;28;20206;-59
2023/12/05 02:11:18;;;;;;;9.75;7.47;;;;;;;;;;5019257;28;20626;-59
2023/12/05 02:13:45;;;;;;;8.45;7.13;;;;;;;;;;5019255;28;20249;-59
2023/12/05 02:16:18;;;;;;;8.65;7.75;;;;;;;;;;5019127;28;20213;-59
2023/12/05 02:18:51;;;;;;;8.30;7.10;;;;;;;;;;5019270;28;20250;-59
2023/12/05 02:21:21;;;;;;;9.10;7.75;;;;;;;;;;5019145;28;20203;-59
2023/12/05 02:24:17;;;;;;;8.95;6.78;;;;;;;;;;5019030;28;20260;-59
2023/12/05 02:26:49;;;;;;;7.70;6.90;;;;;;;;;;5018660;28;20601;-60
2023/12/05 02:29:18;;;;;;;7.85;6.82;;;;;;;;;;5018742;28;20214;-60
2023/12/05 02:31:46;;;;;;;7.85;6.90;;;;;;;;;;5018950;28;20230;-59
2023/12/05 02:34:14;;;;;;;7.72;6.78;;;;;;;;;;5018772;28;20284;-59
2023/12/05 02:36:46;;;;;;;8.68;7.32;;;;;;;;;;5018511;28;20206;-59
2023/12/05 02:39:15;;;;;;;7.55;6.75;;;;;;;;;;5018558;28;20206;-60
2023/12/05 02:41:45;;;;;;;8.40;7.25;;;;;;;;;;5018501;28;20246;-60
2023/12/05 02:44:14;;;;;;;7.82;6.90;;;;;;;;;;5018772;28;20271;-60
2023/12/05 02:46:44;;;;;;;7.85;6.63;;;;;;;;;;5018308;28;20548;-60
2023/12/05 02:49:12;;;;;;;7.82;6.75;;;;;;;;;;5018561;28;20210;-60
2023/12/05 02:51:39;;;;;;;9.23;7.35;;;;;;;;;;5018549;28;20232;-60
2023/12/05 02:54:07;;;;;;;7.85;7.05;;;;;;;;;;5018332;28;20207;-60
2023/12/05 02:56:35;;;;;;;8.35;7.15;;;;;;;;;;5018817;28;20206;-60
2023/12/05 02:59:03;;;;;;;8.30;7.38;;;;;;;;;;5018726;28;20515;-59
2023/12/05 03:01:30;;;;;;;7.93;7.05;;;;;;;;;;5018298;28;20261;-59
2023/12/05 03:03:59;;;;;;;8.35;7.38;;;;;;;;;;5018156;28;20225;-59
2023/12/05 03:06:27;;;;;;;7.90;7.10;;;;;;;;;;5018192;28;20206;-59
2023/12/05 03:08:56;;;;;;;7.68;6.60;;;;;;;;;;5018174;28;20500;-59
2023/12/05 03:11:23;;;;;;;7.57;6.78;;;;;;;;;;5018004;28;20238;-59
2023/12/05 03:13:50;;;;;;;7.95;6.97;;;;;;;;;;5018295;28;20289;-59
2023/12/05 03:16:18;;;;;;;7.95;7.13;;;;;;;;;;5017911;28;20213;-59
2023/12/05 03:18:45;;;;;;;7.95;7.03;;;;;;;;;;5018000;28;20206;-59
2023/12/05 03:21:18;;;;;;;9.13;7.38;;;;;;;;;;5017790;28;20268;-59
2023/12/05 03:23:46;;;;;;;8.25;7.13;;;;;;;;;;5018269;28;20206;-59
2023/12/05 03:26:20;;;;;;;8.40;7.13;;;;;;;;;;5018117;28;20288;-59
2023/12/05 03:28:49;;;;;;;7.82;7.03;;;;;;;;;;5017552;28;20261;-60
2023/12/05 03:31:16;;;;;;;8.18;7.28;;;;;;;;;;5017619;28;20238;-60
2023/12/05 03:33:44;;;;;;;8.07;7.20;;;;;;;;;;5017833;28;20288;-60
2023/12/05 03:36:13;;;;;;;7.85;7.03;;;;;;;;;;5017928;28;20210;-60
2023/12/05 03:38:42;;;;;;;9.13;7.43;;;;;;;;;;5017258;28;20577;-60
2023/12/05 03:41:09;;;;;;;7.70;6.90;;;;;;;;;;5017660;28;20210;-60
2023/12/05 03:43:37;;;;;;;8.15;7.15;;;;;;;;;;5017378;28;20214;-60
2023/12/05 03:46:04;;;;;;;7.68;6.88;;;;;;;;;;5017234;28;20257;-60
2023/12/05 03:48:32;;;;;;;7.57;6.63;;;;;;;;;;5017302;28;20210;-60
2023/12/05 03:51:00;;;;;;;9.00;7.32;;;;;;;;;;5017665;28;20261;-60
2023/12/05 03:53:27;;;;;;;7.82;6.53;;;;;;;;;;5016856;28;20206;-60
2023/12/05 03:55:56;;;;;;;8.02;7.20;;;;;;;;;;5017301;28;20550;-60
2023/12/05 03:58:24;;;;;;;8.13;7.20;;;;;;;;;;5017297;28;20220;-60
2023/12/05 04:00:51;;;;;;;8.57;7.47;;;;;;;;;;5017236;28;20593;-60
2023/12/05 04:03:19;;;;;;;7.78;6.90;;;;;;;;;;5017312;28;20297;-60
2023/12/05 04:05:46;;;;;;;6.90;6.28;;;;;;;;;;5017111;28;20207;-59
2023/12/05 04:08:14;;;;;;;8.77;7.32;;;;;;;;;;5017238;28;20206;-59
2023/12/05 04:10:41;;;;;;;7.88;6.88;;;;;;;;;;5017395;28;20241;-59
2023/12/05 04:13:10;;;;;;;7.72;6.72;;;;;;;;;;5017646;28;20289;-59
2023/12/05 04:15:38;;;;;;;7.90;7.07;;;;;;;;;;5017651;28;20532;-59
2023/12/05 04:18:06;;;;;;;8.15;7.13;;;;;;;;;;5016991;28;20245;-59
2023/12/05 04:20:33;;;;;;;7.88;6.80;;;;;;;;;;5017013;28;20210;-59
2023/12/05 04:23:00;;;;;;;7.63;6.72;;;;;;;;;;5016485;28;20578;-59
2023/12/05 04:25:28;;;;;;;8.20;6.82;;;;;;;;;;5016888;28;20206;-59
2023/12/05 04:27:55;;;;;;;7.97;6.53;;;;;;;;;;5016961;28;20206;-59
2023/12/05 04:30:24;;;;;;;7.78;6.97;;;;;;;;;;5017295;28;20214;-59
2023/12/05 04:32:52;;;;;;;8.07;7.03;;;;;;;;;;5016881;28;20226;-59
2023/12/05 04:35:19;;;;;;;7.57;6.75;;;;;;;;;;5016973;28;20296;-59
2023/12/05 04:37:47;;;;;;;7.53;6.72;;;;;;;;;;5016629;28;20238;-59
2023/12/05 04:40:14;;;;;;;8.13;6.53;;;;;;;;;;5016780;28;20206;-59
2023/12/05 04:42:42;;;;;;;7.60;6.78;;;;;;;;;;5017162;28;20237;-59
2023/12/05 04:45:10;;;;;;;8.45;7.00;;;;;;;;;;5016848;28;20214;-59
2023/12/05 04:47:39;;;;;;;7.95;7.15;;;;;;;;;;5016880;28;20217;-59
2023/12/05 04:50:07;;;;;;;7.63;6.82;;;;;;;;;;5017128;28;20284;-59
2023/12/05 04:52:34;;;;;;;7.53;6.78;;;;;;;;;;5019170;28;20329;-59
2023/12/05 04:55:02;;;;;;;8.40;7.00;;;;;;;;;;5019979;28;20285;-59
2023/12/05 04:57:29;;;;;;;7.15;6.20;;;;;;;;;;5005641;28;20257;-60
2023/12/05 04:59:57;;;;;;;7.15;6.38;;;;;;;;;;5000149;28;20246;-60
2023/12/05 05:02:25;;;;;;;7.35;6.45;;;;;;;;;;5000270;28;20562;-60
2023/12/05 05:04:54;;;;;;;7.53;6.63;;;;;;;;;;5000382;28;20214;-59
2023/12/05 05:07:21;;;;;;;8.27;7.28;;;;;;;;;;5000654;28;20214;-59
2023/12/05 05:09:49;;;;;;;7.57;6.72;;;;;;;;;;5000183;28;20258;-59
2023/12/05 05:12:17;;;;;;;7.78;6.97;;;;;;;;;;5000058;28;20241;-59
2023/12/05 05:14:44;;;;;;;8.07;7.22;;;;;;;;;;5000236;28;20207;-59
2023/12/05 05:17:12;;;;;;;7.47;6.65;;;;;;;;;;5000277;28;20207;-59
2023/12/05 05:19:39;;;;;;;7.50;6.70;;;;;;;;;;5000202;28;20561;-60
2023/12/05 05:22:08;;;;;;;7.57;6.78;;;;;;;;;;5000195;28;20207;-60
2023/12/05 05:24:35;;;;;;;7.50;6.70;;;;;;;;;;4999661;28;20495;-60
2023/12/05 05:27:03;;;;;;;7.93;6.80;;;;;;;;;;5000299;28;20206;-59
2023/12/05 05:29:30;;;;;;;8.88;7.00;;;;;;;;;;4999955;28;20210;-59
2023/12/05 05:31:57;;;;;;;7.93;6.78;;;;;;;;;;4999584;28;20227;-59
2023/12/05 05:34:25;;;;;;;7.93;7.00;;;;;;;;;;4999993;28;20207;-59
2023/12/05 05:36:52;;;;;;;7.70;6.90;;;;;;;;;;4998985;28;20246;-59
2023/12/05 05:39:21;;;;;;;7.78;6.95;;;;;;;;;;4998918;28;20215;-59
2023/12/05 05:41:49;;;;;;;8.15;7.13;;;;;;;;;;4999475;28;20250;-59
2023/12/05 05:44:16;;;;;;;7.75;6.63;;;;;;;;;;4999484;28;20207;-59
2023/12/05 05:46:43;;;;;;;7.43;6.53;;;;;;;;;;5000270;28;20227;-59
2023/12/05 05:49:11;;;;;;;7.32;6.60;;;;;;;;;;4999204;28;20594;-59
2023/12/05 05:51:38;;;;;;;6.88;6.13;;;;;;;;;;4999102;28;20237;-60
2023/12/05 05:54:06;;;;;;;7.65;6.85;;;;;;;;;;4998608;28;20214;-60
2023/12/05 05:56:40;;;;;;;7.28;6.50;;;;;;;;;;4998891;28;20508;-60
2023/12/05 05:59:07;;;;;;;7.30;6.50;;;;;;;;;;4997759;28;20206;-60
2023/12/05 06:01:34;;;;;;;7.50;6.65;;;;;;;;;;4997859;28;20207;-60
2023/12/05 06:04:02;;;;;;;7.40;6.60;;;;;;;;;;4996755;28;20203;-60
2023/12/05 06:06:29;;;;;;;7.93;6.75;;;;;;;;;;4997853;28;20206;-60
2023/12/05 06:08:57;;;;;;;7.18;6.47;;;;;;;;;;4997730;28;20219;-59
2023/12/05 06:11:24;;;;;;;7.45;6.63;;;;;;;;;;4997483;28;20234;-59
2023/12/05 06:13:54;;;;;;;7.80;6.93;;;;;;;;;;4998109;28;20604;-59
2023/12/05 06:16:21;;;;;;;6.80;6.10;;;;;;;;;;4997388;28;20199;-60
2023/12/05 06:18:49;;;;;;;6.78;6.07;;;;;;;;;;5010240;28;20221;-60
2023/12/05 06:21:16;;;;;;;7.13;6.43;;;;;;;;;;5032001;28;20213;-60
2023/12/05 06:23:44;;;;;;;7.78;6.88;;;;;;;;;;5036187;28;20236;-60
2023/12/05 06:26:11;;;;;;;6.80;6.10;;;;;;;;;;5036526;28;20205;-60
2023/12/05 06:28:38;;;;;;;7.60;6.80;;;;;;;;;;5036475;28;20814;-60
2023/12/05 06:31:08;;;;;;;7.00;6.30;;;;;;;;;;5035768;28;20213;-60
2023/12/05 06:33:35;;;;;;;6.75;5.70;;;;;;;;;;5035527;28;20777;-60
2023/12/05 06:36:03;;;;;;;7.20;6.45;;;;;;;;;;5021884;28;20215;-60
2023/12/05 06:38:30;;;;;;;7.60;6.50;;;;;;;;;;5016062;28;20226;-60
2023/12/05 06:40:57;;;;;;;7.38;6.35;;;;;;;;;;5015779;28;20209;-60
2023/12/05 06:43:25;;;;;;;7.40;6.03;;;;;;;;;;5016004;28;20563;-60
2023/12/05 06:45:52;;;;;;;6.28;5.65;;;;;;;;;;5015281;28;20238;-60
2023/12/05 06:48:22;;;;;;;7.65;5.85;;;;;;;;;;5015277;28;20272;-60
2023/12/05 06:50:49;;;;;;;6.47;5.82;;;;;;;;;;5015241;28;20305;-60
2023/12/05 06:53:16;;;;;;;7.30;6.30;;;;;;;;;;5015932;28;20727;-60
2023/12/05 06:55:46;;;;;;;7.05;6.35;;;;;;;;;;5014721;28;20525;-60
2023/12/05 06:58:14;;;;;;;6.95;6.13;;;;;;;;;;5015771;28;20233;-60
2023/12/05 07:00:41;;;;;;;6.82;6.13;;;;;;;;;;5015299;28;20214;-60
2023/12/05 07:03:09;;;;;;;6.78;5.65;;;;;;;;;;5015136;28;20213;-60
2023/12/05 07:05:38;;;;;;;7.00;6.10;;;;;;;;;;5015242;28;20206;-60
2023/12/05 07:08:06;;;;;;;6.60;5.32;;;;;;;;;;5016032;28;20214;-60
2023/12/05 07:10:34;;;;;;;6.30;5.70;;;;;;;;;;5015468;28;20213;-60
2023/12/05 07:13:02;;;;;;;6.03;5.43;;;;;;;;;;5014989;28;20226;-60
2023/12/05 07:15:29;;;;;;;6.75;6.00;;;;;;;;;;5015630;28;20242;-60
2023/12/05 07:17:57;;;;;;;6.90;6.10;;;;;;;;;;5016790;28;20214;-60
2023/12/05 07:20:24;;;;;;;5.82;5.10;;;;;;;;;;5015393;28;20210;-60
2023/12/05 07:22:53;;;;;;;6.10;5.47;;;;;;;;;;5016329;28;20210;-60
2023/12/05 07:25:20;;;;;;;6.65;5.90;;;;;;;;;;5016297;28;20206;-60
2023/12/05 07:27:47;;;;;;;8.18;5.95;;;;;;;;;;5016053;28;20206;-60
2023/12/05 07:30:16;;;;;;;6.25;5.65;;;;;;;;;;5016615;28;20590;-60
2023/12/05 07:32:43;;;;;;;5.90;5.13;;;;;;;;;;5015696;28;20692;-60
2023/12/05 07:35:11;;;;;;;6.50;5.75;;;;;;;;;;5015334;28;20206;-60
2023/12/05 07:37:38;;;;;;;8.48;6.25;;;;;;;;;;5015292;28;20253;-60
2023/12/05 07:40:08;;;;;;;7.15;5.93;;;;;;;;;;5014868;28;20217;-60
2023/12/05 07:42:36;;;;;;;6.53;5.93;;;;;;;;;;5015056;28;20287;-60
2023/12/05 07:45:05;;;;;;;5.95;5.35;;;;;;;;;;5015803;28;20206;-60
2023/12/05 07:47:32;;;;;;;6.47;5.65;;;;;;;;;;5015722;28;20198;-60
2023/12/05 07:49:59;;;;;;;6.43;5.70;;;;;;;;;;5016069;28;20206;-60
2023/12/05 07:52:27;;;;;;;6.32;5.47;;;;;;;;;;5014741;28;20262;-60
2023/12/05 07:54:54;;;;;;;6.70;5.75;;;;;;;;;;5015564;28;20206;-60
2023/12/05 07:57:23;;;;;;;5.90;4.95;;;;;;;;;;5015470;28;20206;-60
2023/12/05 07:59:51;;;;;;;7.07;5.85;;;;;;;;;;5015952;28;20276;-60
2023/12/05 08:02:18;;;;;;;6.55;5.35;;;;;;;;;;5015768;28;20194;-60
2023/12/05 08:04:46;;;;;;;6.22;5.63;;;;;;;;;;5014590;28;20206;-60
2023/12/05 08:07:13;;;;;;;6.25;5.65;;;;;;;;;;5015062;28;20206;-60
2023/12/05 08:09:41;;;;;;;7.03;5.88;;;;;;;;;;5015679;28;20622;-60
2023/12/05 08:12:09;;;;;;;6.03;5.43;;;;;;;;;;5014410;28;20617;-60
2023/12/05 08:14:39;;;;;;;6.78;6.07;;;;;;;;;;5017112;28;20578;-60
2023/12/05 08:17:06;;;;;;;6.72;5.95;;;;;;;;;;5014821;28;20213;-60
2023/12/05 08:19:34;;;;;;;6.20;5.60;;;;;;;;;;5015697;28;20499;-60
2023/12/05 08:22:01;;;;;;;6.38;5.72;;;;;;;;;;5015976;28;20206;-60
2023/12/05 08:24:29;;;;;;;6.85;6.15;;;;;;;;;;5016068;28;20217;-60
2023/12/05 08:26:56;;;;;;;6.97;6.28;;;;;;;;;;5017481;28;20210;-60
2023/12/05 08:29:23;;;;;;;6.60;5.80;;;;;;;;;;5019071;28;20661;-60
2023/12/05 08:31:52;;;;;;;7.63;5.72;;;;;;;;;;5019267;28;20484;-60
2023/12/05 08:34:19;;;;;;;6.82;5.88;;;;;;;;;;5019656;28;20593;-60
2023/12/05 08:36:47;;;;;;;6.70;6.00;;;;;;;;;;5019252;28;20207;-60
2023/12/05 08:39:14;;;;;;;6.32;5.72;;;;;;;;;;5019221;28;20213;-60
2023/12/05 08:41:41;;;;;;;6.03;5.40;;;;;;;;;;5019215;28;20210;-60
2023/12/05 08:44:09;;;;;;;7.47;6.40;;;;;;;;;;5019355;28;20206;-60
2023/12/05 08:46:37;;;;;;;6.82;6.13;;;;;;;;;;5019328;28;20482;-60
2023/12/05 08:49:06;;;;;;;7.25;6.10;;;;;;;;;;5019248;28;20236;-60
2023/12/05 08:51:34;;;;;;;7.15;6.40;;;;;;;;;;5019186;28;20207;-60
2023/12/05 08:54:01;;;;;;;6.45;5.85;;;;;;;;;;5018471;28;20226;-60
2023/12/05 08:56:29;;;;;;;6.47;5.88;;;;;;;;;;5018980;28;20206;-60
2023/12/05 08:58:56;;;;;;;6.50;5.80;;;;;;;;;;5018756;28;20734;-60
2023/12/05 09:01:24;;;;;;;6.47;5.80;;;;;;;;;;5018997;28;20562;-60
2023/12/05 09:03:51;;;;;;;7.18;6.18;;;;;;;;;;5018875;28;20318;-60
2023/12/05 09:06:20;;;;;;;6.50;5.75;;;;;;;;;;5018860;28;20206;-60
2023/12/05 09:08:47;;;;;;;6.63;5.88;;;;;;;;;;5019147;28;20207;-60
2023/12/05 09:11:15;;;;;;;6.80;6.10;;;;;;;;;;5019013;28;20217;-60
2023/12/05 09:13:42;;;;;;;6.72;5.75;;;;;;;;;;5018234;28;20230;-60
2023/12/05 09:16:09;;;;;;;6.55;5.95;;;;;;;;;;5018736;28;20250;-60
2023/12/05 09:18:37;;;;;;;6.60;5.85;;;;;;;;;;5018618;28;20210;-60
2023/12/05 09:21:05;;;;;;;7.13;6.20;;;;;;;;;;5018088;28;20198;-60
2023/12/05 09:23:33;;;;;;;6.22;5.60;;;;;;;;;;5018401;28;20203;-59
2023/12/05 09:26:01;;;;;;;6.55;5.80;;;;;;;;;;5018004;28;20602;-59
2023/12/05 09:28:31;;;;;;;6.95;6.05;;;;;;;;;;5017731;28;20506;-59
2023/12/05 09:30:58;;;;;;;6.95;6.18;;;;;;;;;;5018512;28;20213;-59
2023/12/05 09:33:26;;;;;;;6.53;5.93;;;;;;;;;;5018106;28;20705;-59
2023/12/05 09:35:53;;;;;;;6.85;6.15;;;;;;;;;;5017406;28;20272;-59
2023/12/05 09:38:21;;;;;;;7.28;6.57;;;;;;;;;;5017286;28;20625;-59
2023/12/05 09:40:51;;;;;;;7.10;6.40;;;;;;;;;;5018389;28;20206;-59
2023/12/05 09:43:22;;;;;;;7.10;6.35;;;;;;;;;;5017893;28;20202;-59
2023/12/05 09:45:54;;;;;;;6.78;6.07;;;;;;;;;;5016872;28;20207;-59
2023/12/05 09:48:22;;;;;;;6.20;5.60;;;;;;;;;;5017547;28;20206;-59
2023/12/05 09:50:51;;;;;;;6.78;6.07;;;;;;;;;;5017835;28;20268;-59
2023/12/05 09:53:19;;;;;;;6.50;5.80;;;;;;;;;;5016942;28;20238;-59
2023/12/05 09:55:47;;;;;;;7.20;6.05;;;;;;;;;;5017566;28;20286;-59
2023/12/05 09:58:16;;;;;;;7.07;6.38;;;;;;;;;;5017248;28;20237;-59
2023/12/05 10:00:44;;;;;;;7.50;6.00;;;;;;;;;;5016583;28;20217;-60
2023/12/05 10:03:14;;;;;;;6.57;5.90;;;;;;;;;;5016704;28;20292;-60
2023/12/05 10:05:42;;;;;;;6.68;5.97;;;;;;;;;;5016957;28;20217;-59
2023/12/05 10:08:10;;;;;;;6.95;6.03;;;;;;;;;;5016997;28;20214;-59
2023/12/05 10:10:39;;;;;;;7.65;6.72;;;;;;;;;;5016759;28;20202;-59
2023/12/05 10:13:07;;;;;;;6.80;5.75;;;;;;;;;;5016282;28;20743;-59
2023/12/05 10:15:36;;;;;;;7.07;5.95;;;;;;;;;;5017633;28;20199;-59
2023/12/05 10:18:05;;;;;;;6.85;5.72;;;;;;;;;;5016718;28;20210;-59
2023/12/05 10:20:32;;;;;;;6.45;5.82;;;;;;;;;;5017205;28;20215;-59
2023/12/05 10:23:00;;;;;;;7.30;5.70;;;;;;;;;;5016451;28;20613;-59
2023/12/05 10:25:27;;;;;;;6.72;6.03;;;;;;;;;;5017239;28;20214;-59
2023/12/05 10:28:02;;;;;;;7.10;6.40;;;;;;;;;;5017098;28;20210;-59
2023/12/05 10:30:33;;;;;;;6.32;5.70;;;;;;;;;;5015639;28;20233;-59
2023/12/05 10:33:11;;;;;;;6.78;6.07;;;;;;;;;;5014700;28;20222;-59
2023/12/05 10:35:39;;;;;;;5.90;5.22;;;;;;;;;;5016818;28;20206;-59
2023/12/05 10:38:07;;;;;;;6.75;5.75;;;;;;;;;;5016133;28;20242;-59
2023/12/05 10:40:49;;;;;;;6.25;5.65;;;;;;;;;;5014649;28;20594;-59
2023/12/05 10:43:16;;;;;;;7.07;5.97;;;;;;;;;;5015234;28;20210;-59
2023/12/05 10:45:44;;;;;;;7.10;5.78;;;;;;;;;;5015401;28;20599;-59
2023/12/05 10:48:13;;;;;;;6.47;5.75;;;;;;;;;;5015252;28;20217;-59
2023/12/05 10:50:41;;;;;;;6.28;5.57;;;;;;;;;;5013780;28;20613;-59
2023/12/05 10:53:08;;;;;;;5.93;5.28;;;;;;;;;;5014985;28;20237;-59
2023/12/05 10:55:35;;;;;;;6.38;5.78;;;;;;;;;;5014642;28;20229;-59
2023/12/05 10:58:03;;;;;;;6.20;5.40;;;;;;;;;;5013813;28;20705;-59
2023/12/05 11:00:30;;;;;;;6.78;5.82;;;;;;;;;;5015691;28;20225;-59
2023/12/05 11:02:58;;;;;;;5.88;5.28;;;;;;;;;;5015003;28;20202;-59
2023/12/05 11:05:28;;;;;;;6.18;5.47;;;;;;;;;;5014759;28;20232;-59
2023/12/05 11:07:56;;;;;;;6.05;5.10;;;;;;;;;;5014952;28;20198;-59
2023/12/05 11:10:23;;;;;;;6.40;5.57;;;;;;;;;;5014697;28;20309;-59
2023/12/05 11:12:51;;;;;;;5.95;5.32;;;;;;;;;;5014350;28;20206;-60
2023/12/05 11:15:22;;;;;;;6.38;5.50;;;;;;;;;;5014334;28;20206;-60
2023/12/05 11:17:51;;;;;;;6.38;5.72;;;;;;;;;;5014927;28;20213;-60
2023/12/05 11:20:23;;;;;;;6.47;5.75;;;;;;;;;;5014869;28;20205;-60
2023/12/05 11:22:57;;;;;;;6.53;5.93;;;;;;;;;;5014247;28;20206;-60
2023/12/05 11:25:31;;;;;;;5.90;5.30;;;;;;;;;;5014595;28;20613;-60
2023/12/05 11:28:05;;;;;;;6.93;5.78;;;;;;;;;;5015054;28;20206;-60
2023/12/05 11:30:59;;;;;;;6.30;5.70;;;;;;;;;;5014116;28;20280;-60
2023/12/05 11:33:35;;;;;;;6.57;5.75;;;;;;;;;;4978959;28;20815;-59
2023/12/05 11:36:11;;;;;;;6.18;5.50;;;;;;;;;;5013441;28;20217;-59
2023/12/05 11:38:40;;;;;;;6.65;5.35;;;;;;;;;;4973477;28;1189261;-59
2023/12/05 11:41:14;;;;;;;6.53;5.72;;;;;;;;;;5014865;28;20207;-59
2023/12/05 11:43:42;;;;;;;7.97;7.15;;;;;;;;;;5014948;28;20237;-59
2023/12/05 11:46:10;;;;;;;13.52;11.95;;;;;;;;;;5014531;28;20237;-60
2023/12/05 11:48:37;;;;;;;22.30;17.45;;;;;;;;;;5014444;28;20205;-60
2023/12/05 11:51:05;;;;;;;22.13;18.08;;;;;;;;;;5013745;28;20217;-60
2023/12/05 11:53:32;;;;;;;24.80;18.65;;;;;;;;;;5013317;28;20229;-60
2023/12/05 11:56:01;;;;;;;25.80;19.95;;;;;;;;;;5013464;28;20206;-60
2023/12/05 11:58:29;;;;;;;27.17;21.67;;;;;;;;;;5014340;28;20529;-60
2023/12/05 12:01:07;;;;;;;26.08;20.73;;;;;;;;;;5013047;28;20617;-60
2023/12/05 12:03:50;;;;;;;27.83;22.25;;;;;;;;;;5014572;28;20618;-60
2023/12/05 12:06:18;;;;;;;29.85;23.75;;;;;;;;;;5014468;28;20301;-60
2023/12/05 12:08:46;;;;;;;30.48;22.70;;;;;;;;;;5015164;28;20207;-60
2023/12/05 12:11:14;;;;;;;31.73;24.05;;;;;;;;;;5014410;28;20672;-60
2023/12/05 12:13:43;;;;;;;32.20;24.00;;;;;;;;;;5013776;28;20226;-58
2023/12/05 12:16:14;;;;;;;30.83;24.05;;;;;;;;;;5014103;28;20212;-58
2023/12/05 12:18:41;;;;;;;31.60;24.38;;;;;;;;;;5014864;28;20539;-60
2023/12/05 12:21:09;;;;;;;29.67;23.35;;;;;;;;;;5014923;28;20206;-58
2023/12/05 12:23:36;;;;;;;31.38;24.42;;;;;;;;;;5014502;28;20617;-58
2023/12/05 12:26:03;;;;;;;32.42;25.30;;;;;;;;;;5014301;28;20731;-60
2023/12/05 12:28:33;;;;;;;31.92;24.83;;;;;;;;;;5014531;28;20206;-60
2023/12/05 12:31:00;;;;;;;33.42;25.42;;;;;;;;;;5015092;28;20217;-59
2023/12/05 12:33:37;;;;;;;32.35;24.55;;;;;;;;;;5014580;28;20229;-60
2023/12/05 12:36:09;;;;;;;31.23;24.85;;;;;;;;;;5014072;28;20598;-60
2023/12/05 12:38:38;;;;;;;30.58;24.63;;;;;;;;;;5014521;28;20233;-60
2023/12/05 12:41:09;;;;;;;32.50;24.65;;;;;;;;;;5012712;28;20218;-60
2023/12/05 12:43:37;;;;;;;31.10;24.67;;;;;;;;;;5014392;28;20202;-60
2023/12/05 12:46:06;;;;;;;32.20;25.45;;;;;;;;;;5013721;28;20209;-60
2023/12/05 12:48:33;;;;;;;31.05;23.75;;;;;;;;;;5013633;28;20206;-60
2023/12/05 12:51:01;;;;;;;27.67;23.08;;;;;;;;;;5013664;28;20206;-60
2023/12/05 12:53:28;;;;;;;42.13;30.20;;;;;;;;;;5013723;28;20226;-61
2023/12/05 12:55:55;;;;;;;126.60;75.28;;;;;;;;;;5012128;28;20202;-61
2023/12/05 12:58:34;;;;;;;117.50;73.22;;;;;;;;;;5012757;28;20211;-60
2023/12/05 13:01:03;;;;;;;100.20;63.85;;;;;;;;;;5013499;28;20207;-59
2023/12/05 13:03:32;;;;;;;92.47;58.97;;;;;;;;;;5014327;28;20578;-58
2023/12/05 13:06:00;;;;;;;86.25;56.03;;;;;;;;;;5013922;28;20206;-60
2023/12/05 13:08:27;;;;;;;80.13;52.75;;;;;;;;;;5014030;28;20207;-60
2023/12/05 13:10:55;;;;;;;78.68;53.33;;;;;;;;;;5014098;28;20233;-59
2023/12/05 13:13:22;;;;;;;81.05;52.53;;;;;;;;;;5015587;28;20212;-59
2023/12/05 13:15:50;;;;;;;69.93;48.20;;;;;;;;;;5016765;28;20614;-58
2023/12/05 13:18:18;;;;;;;71.82;48.15;;;;;;;;;;5017096;28;20210;-59
2023/12/05 13:20:51;;;;;;;66.35;45.25;;;;;;;;;;5016761;28;20625;-60
2023/12/05 13:23:19;;;;;;;65.25;44.22;;;;;;;;;;5016485;28;20206;-60
2023/12/05 13:25:46;;;;;;;63.65;43.15;;;;;;;;;;5016601;28;20210;-60
2023/12/05 13:28:14;;;;;;;60.92;41.15;;;;;;;;;;5017093;28;20218;-60
2023/12/05 13:30:41;;;;;;;56.55;40.03;;;;;;;;;;5016644;28;20226;-60
2023/12/05 13:33:09;;;;;;;55.85;39.17;;;;;;;;;;5017217;28;20198;-60
2023/12/05 13:35:37;;;;;;;55.40;38.67;;;;;;;;;;5015583;28;20230;-60
2023/12/05 13:38:07;;;;;;;51.08;36.13;;;;;;;;;;5016056;28;20253;-60
2023/12/05 13:40:34;;;;;;;49.17;36.45;;;;;;;;;;5015773;28;20217;-60
2023/12/05 13:43:02;;;;;;;48.38;34.38;;;;;;;;;;5016263;28;20206;-60
2023/12/05 13:45:29;;;;;;;48.60;34.17;;;;;;;;;;5015679;28;20233;-60
2023/12/05 13:47:56;;;;;;;44.55;31.98;;;;;;;;;;5017121;28;20198;-60
2023/12/05 13:50:25;;;;;;;47.17;32.80;;;;;;;;;;5016495;28;20211;-60
2023/12/05 13:52:54;;;;;;;42.40;31.20;;;;;;;;;;5016932;28;20795;-60
2023/12/05 13:55:21;;;;;;;43.67;32.33;;;;;;;;;;5016603;28;20230;-60
2023/12/05 13:57:49;;;;;;;50.00;36.25;;;;;;;;;;5016584;28;20210;-59
2023/12/05 14:00:16;;;;;;;47.33;33.88;;;;;;;;;;5015593;28;20211;-60
2023/12/05 14:02:44;;;;;;;42.10;32.40;;;;;;;;;;5015538;28;20207;-59
2023/12/05 14:05:11;;;;;;;43.92;31.20;;;;;;;;;;5015798;28;20207;-59
2023/12/05 14:07:39;;;;;;;41.42;29.30;;;;;;;;;;5015956;28;20220;-59
2023/12/05 14:10:09;;;;;;;40.33;29.13;;;;;;;;;;5015825;28;20206;-59
2023/12/05 14:12:36;;;;;;;38.78;28.63;;;;;;;;;;5015844;28;20213;-59
2023/12/05 14:15:04;;;;;;;38.75;28.42;;;;;;;;;;5015819;28;20229;-59
2023/12/05 14:17:31;;;;;;;35.50;26.48;;;;;;;;;;5015363;28;20209;-60
2023/12/05 14:20:00;;;;;;;37.08;26.13;;;;;;;;;;5015889;28;20202;-60
2023/12/05 14:22:28;;;;;;;32.97;23.67;;;;;;;;;;5015470;28;20602;-60
2023/12/05 14:24:55;;;;;;;32.60;25.52;;;;;;;;;;5015006;28;20203;-60
2023/12/05 14:27:24;;;;;;;29.83;24.02;;;;;;;;;;5015549;28;20206;-60
2023/12/05 14:29:51;;;;;;;28.58;22.35;;;;;;;;;;5016007;28;20206;-60
2023/12/05 14:32:18;;;;;;;29.85;22.38;;;;;;;;;;5015793;28;20206;-60
2023/12/05 14:34:46;;;;;;;30.63;22.40;;;;;;;;;;5015403;28;20292;-60
2023/12/05 14:37:14;;;;;;;27.60;21.33;;;;;;;;;;5015417;28;20245;-59
2023/12/05 14:39:43;;;;;;;28.88;21.60;;;;;;;;;;5015124;28;20198;-59
2023/12/05 14:42:11;;;;;;;26.25;20.70;;;;;;;;;;5015369;28;20284;-59
2023/12/05 14:44:41;;;;;;;27.88;20.83;;;;;;;;;;5015068;28;20294;-59